Airfield :
LOGIN :

Register | Disclaimer

   EN    FR    IT 

 










Legend :    VFR   Marginal VFR   IFR   Intensive IFR   Very Intensive IFR
Visi :
Ceiling :
>= 8 km
>= 3000ft
5 to 8 km
1000 to 3000 ft
1500m to 5 km
500 to 1000 ft
800 to 1500m
200 to 500 ft
< 800m
< 200 ft
Symbols :   Thunderstorms  Fog  Heavy snow  Heavy precipitations  Wind > 20 kt
SIGMETs :     Misc.  Thunderstorms  Icing  Turbulence  Mountain Waves  Volcanic Ashes







- Airport Elevation : 1585 ft
- IATA code : SIR


LSGS - Sion

CURRENT METAR :
  • 252320Z AUTO 25007KT 9999 OVC035 M03/M09 Q1012

EXPIRED METARs :
  • 252250Z AUTO 26008KT 9999 OVC036 M03/M09 Q1012
  • 252220Z AUTO 26008KT 9999 OVC050 M03/M09 Q1012
  • 252150Z AUTO 25006KT 9999 SCT048 M03/M09 Q1012
  • 252120Z AUTO 26004KT 9999 OVC036 M03/M09 Q1012
  • 252050Z AUTO 26011KT 9999 BKN034 BKN050 M03/M08 Q1012

TAF TAF LSGS
Valid from the 25 at 15:00 until the 26 at 00:00 UTC


251425Z 2515/2524 25015KT 9999 SCT030 BKN050
BECMG 2515/2517 FEW030 SCT050
BECMG 2518/2520 VRB03KT
No reported NOTAMs for that airfield.



MET'MAP, your aeronautical weather chart ! - Copyright ORBIFLY December 2007 - Disclaimer

ORBIFLY MET'MAP TEAM :

Programming & Development : Alexandra Zaïnal
Concept & Development : Baudouin d'Aumeries
Co-Development & Prog : Marc-Olivier Méhu
Technical & hardware support : Manuel Goepfert

Contact : metmap@orbifly.com




SOURCES & CREDITS :

   NOAA